createdAt,value
2019-05-16T00:00:19.236Z,1.30
2019-05-16T00:01:19.529Z,1.50
2019-05-16T00:02:18.698Z,1.30
2019-05-16T00:03:18.751Z,2.10
2019-05-16T00:04:18.442Z,1.40
2019-05-16T00:05:18.827Z,1.50
2019-05-16T00:06:18.415Z,1.60
2019-05-16T00:07:19.252Z,1.50
2019-05-16T00:08:18.384Z,1.70
2019-05-16T00:09:18.434Z,1.70
2019-05-16T00:10:18.798Z,1.90
2019-05-16T00:11:18.353Z,1.30
2019-05-16T00:12:18.538Z,1.50
2019-05-16T00:13:18.706Z,1.60
2019-05-16T00:14:18.869Z,1.60
2019-05-16T00:15:18.429Z,1.80
2019-05-16T00:16:18.798Z,1.50
2019-05-16T00:17:18.869Z,1.20
2019-05-16T00:18:18.294Z,1.30
2019-05-16T00:19:18.276Z,1.70
2019-05-16T00:20:19.114Z,1.50
2019-05-16T00:21:18.240Z,1.80
2019-05-16T00:22:18.366Z,1.50
2019-05-16T00:23:18.350Z,1.50
2019-05-16T00:24:18.678Z,1.30
2019-05-16T00:25:18.204Z,1.20
2019-05-16T00:26:19.812Z,1.40
2019-05-16T00:27:18.583Z,1.50
2019-05-16T00:28:18.197Z,1.50
2019-05-16T00:29:18.462Z,1.40
2019-05-16T00:30:18.436Z,1.60
2019-05-16T00:31:18.435Z,1.40
2019-05-16T00:32:19.061Z,1.50
2019-05-16T00:33:18.459Z,1.60
2019-05-16T00:34:18.907Z,1.40
2019-05-16T00:35:18.378Z,1.50
2019-05-16T00:36:18.929Z,1.40
2019-05-16T00:37:18.287Z,1.40
2019-05-16T00:38:18.403Z,1.50
2019-05-16T00:39:18.767Z,1.50
2019-05-16T00:40:18.797Z,1.70
2019-05-16T00:41:18.192Z,1.30
2019-05-16T00:42:18.183Z,1.40
2019-05-16T00:43:18.368Z,1.50
2019-05-16T00:44:18.972Z,1.50
2019-05-16T00:45:18.585Z,1.40
2019-05-16T00:46:20.045Z,1.30
2019-05-16T00:47:18.035Z,1.70
2019-05-16T00:48:18.355Z,1.20
2019-05-16T00:49:18.694Z,1.50
2019-05-16T00:50:18.437Z,1.60
2019-05-16T00:51:18.434Z,1.50
2019-05-16T00:52:18.425Z,1.40
2019-05-16T00:53:18.263Z,1.60
2019-05-16T00:54:18.567Z,1.40
2019-05-16T00:55:18.141Z,1.60
2019-05-16T00:56:18.638Z,1.40
2019-05-16T00:57:18.822Z,1.50
2019-05-16T00:58:18.768Z,1.50
2019-05-16T00:59:18.351Z,1.40
2019-05-16T01:00:18.192Z,1.50
2019-05-16T01:01:18.977Z,1.50
2019-05-16T01:02:18.182Z,1.50
2019-05-16T01:03:20.267Z,1.50
2019-05-16T01:04:18.316Z,1.40
2019-05-16T01:05:19.122Z,1.70
2019-05-16T01:06:22.545Z,1.40
2019-05-16T01:07:18.827Z,1.50
2019-05-16T01:08:18.964Z,1.50
2019-05-16T01:09:18.796Z,1.30
2019-05-16T01:10:18.325Z,1.60
2019-05-16T01:11:18.443Z,1.60
2019-05-16T01:12:17.868Z,1.50
2019-05-16T01:13:18.630Z,1.50
2019-05-16T01:14:17.794Z,1.80
2019-05-16T01:15:18.422Z,1.40
2019-05-16T01:16:18.737Z,1.70
2019-05-16T01:17:18.235Z,1.50
2019-05-16T01:18:18.820Z,1.60
2019-05-16T01:19:18.681Z,1.30
2019-05-16T01:20:19.155Z,1.50
2019-05-16T01:21:18.528Z,1.50
2019-05-16T01:22:18.709Z,1.40
2019-05-16T01:23:18.260Z,1.50
2019-05-16T01:24:18.773Z,1.50
2019-05-16T01:25:19.562Z,1.50
2019-05-16T01:26:18.618Z,1.60
2019-05-16T01:27:18.489Z,1.50
2019-05-16T01:28:18.061Z,1.60
2019-05-16T01:29:18.880Z,1.30
2019-05-16T01:30:18.622Z,1.40
2019-05-16T01:31:19.176Z,1.30
2019-05-16T01:32:18.990Z,1.40
2019-05-16T01:33:19.154Z,1.40
2019-05-16T01:34:18.136Z,1.70
2019-05-16T01:35:18.820Z,1.50
2019-05-16T01:36:26.299Z,1.30
2019-05-16T01:37:18.659Z,1.40
2019-05-16T01:38:18.118Z,1.50
2019-05-16T01:39:18.246Z,1.80
2019-05-16T01:40:18.861Z,1.30
2019-05-16T01:41:18.065Z,1.60
2019-05-16T01:42:18.435Z,1.60
2019-05-16T01:43:17.867Z,1.60
2019-05-16T01:44:18.322Z,1.40
2019-05-16T01:45:18.812Z,1.50
2019-05-16T01:46:18.020Z,1.50
2019-05-16T01:47:18.320Z,1.80
2019-05-16T01:48:19.151Z,1.70
2019-05-16T01:49:18.744Z,1.80
2019-05-16T01:50:18.073Z,1.60
2019-05-16T01:51:18.426Z,1.60
2019-05-16T01:52:17.850Z,1.80
2019-05-16T01:53:17.838Z,1.70
2019-05-16T01:54:18.002Z,1.90
2019-05-16T01:55:18.714Z,1.60
2019-05-16T01:56:17.912Z,1.70
2019-05-16T01:57:18.157Z,1.70
2019-05-16T01:58:19.824Z,1.90
2019-05-16T01:59:18.196Z,1.60
2019-05-16T02:00:23.248Z,1.50
2019-05-16T02:01:19.013Z,1.60
2019-05-16T02:02:18.407Z,1.50
2019-05-16T02:03:19.013Z,1.70
2019-05-16T02:04:18.372Z,2.00
2019-05-16T02:05:18.820Z,1.90
2019-05-16T02:06:18.428Z,1.90
2019-05-16T02:07:18.825Z,1.80
2019-05-16T02:08:18.283Z,1.80
2019-05-16T02:09:18.853Z,1.90
2019-05-16T02:10:18.176Z,1.80
2019-05-16T02:11:18.133Z,1.90
2019-05-16T02:12:18.450Z,1.60
2019-05-16T02:13:17.945Z,2.10
2019-05-16T02:14:17.695Z,1.70
2019-05-16T02:15:18.232Z,1.90
2019-05-16T02:16:18.678Z,2.30
2019-05-16T02:17:18.399Z,1.70
2019-05-16T02:18:18.415Z,1.70
2019-05-16T02:19:18.784Z,2.00
2019-05-16T02:20:17.955Z,1.80
2019-05-16T02:21:18.237Z,2.10
2019-05-16T02:22:17.916Z,1.50
2019-05-16T02:23:18.707Z,1.80
2019-05-16T02:24:18.266Z,1.70
2019-05-16T02:25:18.531Z,1.90
2019-05-16T02:26:19.201Z,1.80
2019-05-16T02:27:18.274Z,1.60
2019-05-16T02:28:16.852Z,1.70
2019-05-16T02:29:16.852Z,1.90
2019-05-16T02:30:16.851Z,1.60
2019-05-16T02:31:16.848Z,2.00
2019-05-16T02:32:16.808Z,1.80
2019-05-16T02:33:16.798Z,2.00
2019-05-16T02:34:16.833Z,1.90
2019-05-16T02:35:16.773Z,1.80
2019-05-16T02:36:16.800Z,1.90
2019-05-16T02:37:24.496Z,1.50
2019-05-16T02:38:20.883Z,1.60
2019-05-16T02:39:16.730Z,1.80
2019-05-16T02:40:16.724Z,2.00
2019-05-16T02:41:16.733Z,1.90
2019-05-16T02:42:16.701Z,2.10
2019-05-16T02:43:16.694Z,1.80
2019-05-16T02:44:16.711Z,1.90
2019-05-16T02:45:16.678Z,1.80
2019-05-16T02:46:16.674Z,1.90
2019-05-16T02:47:16.644Z,1.90
2019-05-16T02:48:16.638Z,1.90
2019-05-16T02:49:16.630Z,1.90
2019-05-16T02:50:16.613Z,1.90
2019-05-16T02:51:16.633Z,2.10
2019-05-16T02:52:16.597Z,1.70
2019-05-16T02:53:16.581Z,2.30
2019-05-16T02:54:16.566Z,1.90
2019-05-16T02:55:16.567Z,2.10
2019-05-16T02:56:16.563Z,1.80
2019-05-16T02:57:16.536Z,1.80
2019-05-16T02:58:16.527Z,2.20
2019-05-16T02:59:16.509Z,2.10
2019-05-16T03:00:16.499Z,1.90
2019-05-16T03:01:16.513Z,2.00
2019-05-16T03:02:16.515Z,2.00
2019-05-16T03:03:16.474Z,2.00
2019-05-16T03:04:16.452Z,1.90
2019-05-16T03:05:16.454Z,2.20
2019-05-16T03:06:16.433Z,1.90
2019-05-16T03:07:33.018Z,1.90
2019-05-16T03:08:17.426Z,2.00
2019-05-16T03:09:16.404Z,1.90
2019-05-16T03:10:16.384Z,2.10
2019-05-16T03:11:16.404Z,2.00
2019-05-16T03:12:16.399Z,2.00
2019-05-16T03:13:16.353Z,2.10
2019-05-16T03:14:16.366Z,2.00
2019-05-16T03:15:16.336Z,2.30
2019-05-16T03:16:16.327Z,2.20
2019-05-16T03:17:16.328Z,2.00
2019-05-16T03:18:16.336Z,2.10
2019-05-16T03:19:16.298Z,2.10
2019-05-16T03:20:16.294Z,2.30
2019-05-16T03:21:16.268Z,2.00
2019-05-16T03:22:16.275Z,2.20
2019-05-16T03:23:16.245Z,2.00
2019-05-16T03:24:16.239Z,2.00
2019-05-16T03:25:16.223Z,2.50
2019-05-16T03:26:16.269Z,2.10
2019-05-16T03:27:16.229Z,2.40
2019-05-16T03:28:16.194Z,2.10
2019-05-16T03:29:16.187Z,2.20
2019-05-16T03:30:17.134Z,2.30
2019-05-16T03:31:16.245Z,2.00
2019-05-16T03:32:16.165Z,2.10
2019-05-16T03:33:24.281Z,2.30
2019-05-16T03:34:19.035Z,2.40
2019-05-16T03:35:17.559Z,2.30
2019-05-16T03:36:16.559Z,2.30
2019-05-16T03:37:16.108Z,2.20
2019-05-16T03:38:16.095Z,2.30
2019-05-16T03:39:16.076Z,2.10
2019-05-16T03:40:16.070Z,2.40
2019-05-16T03:41:16.047Z,2.10
2019-05-16T03:42:16.036Z,2.30
2019-05-16T03:43:16.039Z,2.20
2019-05-16T03:44:16.012Z,2.20
2019-05-16T03:45:16.013Z,2.00
2019-05-16T03:46:16.005Z,2.10
2019-05-16T03:47:15.989Z,2.20
2019-05-16T03:48:15.992Z,1.90
2019-05-16T03:49:15.959Z,2.10
2019-05-16T03:50:15.953Z,2.40
2019-05-16T03:51:15.938Z,2.20
2019-05-16T03:52:15.920Z,2.00
2019-05-16T03:53:15.931Z,1.90
2019-05-16T03:54:15.931Z,2.00
2019-05-16T03:55:15.944Z,1.70
2019-05-16T03:56:15.878Z,2.00
2019-05-16T03:57:15.881Z,2.10
2019-05-16T03:58:15.898Z,1.70
2019-05-16T03:59:15.851Z,2.00
2019-05-16T04:00:15.835Z,1.90
2019-05-16T04:01:15.820Z,2.20
2019-05-16T04:02:15.823Z,1.90
2019-05-16T04:03:15.817Z,1.80
2019-05-16T04:04:15.820Z,2.00
2019-05-16T04:05:15.782Z,2.20
2019-05-16T04:06:15.773Z,2.10
2019-05-16T04:07:15.765Z,1.90
2019-05-16T04:08:20.884Z,2.00
2019-05-16T04:09:16.774Z,2.00
2019-05-16T04:10:15.722Z,1.50
2019-05-16T04:11:18.586Z,1.80
2019-05-16T04:12:16.747Z,1.80
2019-05-16T04:13:15.728Z,2.00
2019-05-16T04:14:15.690Z,2.30
2019-05-16T04:15:15.679Z,1.80
2019-05-16T04:16:15.653Z,1.80
2019-05-16T04:17:15.653Z,2.20
2019-05-16T04:18:15.736Z,1.90
2019-05-16T04:19:15.655Z,2.00
2019-05-16T04:20:15.614Z,2.00
2019-05-16T04:21:17.668Z,1.80
2019-05-16T04:22:16.599Z,1.70
2019-05-16T04:23:15.574Z,2.20
2019-05-16T04:24:15.612Z,1.90
2019-05-16T04:25:15.553Z,1.70
2019-05-16T04:26:15.563Z,2.00
2019-05-16T04:27:15.537Z,1.80
2019-05-16T04:28:15.540Z,1.70
2019-05-16T04:29:15.541Z,1.90
2019-05-16T04:30:15.498Z,2.00
2019-05-16T04:31:15.493Z,1.80
2019-05-16T04:32:15.499Z,1.90
2019-05-16T04:33:15.471Z,1.80
2019-05-16T04:34:15.469Z,2.10
2019-05-16T04:35:15.618Z,2.20
2019-05-16T04:36:15.431Z,2.30
2019-05-16T04:37:15.420Z,2.10
2019-05-16T04:38:30.215Z,1.80
2019-05-16T04:39:16.423Z,2.20
2019-05-16T04:40:15.396Z,2.00
2019-05-16T04:41:15.413Z,2.10
2019-05-16T04:42:15.370Z,1.70
2019-05-16T04:43:15.392Z,2.00
2019-05-16T04:44:15.373Z,1.60
2019-05-16T04:45:15.337Z,1.80
2019-05-16T04:46:15.331Z,1.70
2019-05-16T04:47:15.329Z,1.90
2019-05-16T04:48:15.304Z,1.70
2019-05-16T04:49:15.309Z,1.70
2019-05-16T04:50:15.290Z,2.10
2019-05-16T04:51:15.268Z,1.80
2019-05-16T04:52:15.265Z,1.80
2019-05-16T04:53:15.241Z,1.70
2019-05-16T04:54:15.272Z,1.60
2019-05-16T04:55:15.250Z,2.00
2019-05-16T04:56:15.211Z,2.00
2019-05-16T04:57:15.212Z,1.80
2019-05-16T04:58:15.207Z,1.80
2019-05-16T04:59:16.932Z,1.80
2019-05-16T05:00:15.180Z,1.70
2019-05-16T05:01:15.169Z,1.70
2019-05-16T05:02:15.155Z,2.10
2019-05-16T05:03:15.133Z,1.60
2019-05-16T05:04:15.709Z,1.80
2019-05-16T05:05:15.129Z,1.80
2019-05-16T05:06:15.100Z,1.70
2019-05-16T05:07:15.091Z,1.60
2019-05-16T05:08:15.086Z,1.40
2019-05-16T05:09:15.079Z,1.50
2019-05-16T05:10:15.069Z,1.60
2019-05-16T05:11:15.144Z,1.70
2019-05-16T05:12:15.046Z,1.50
2019-05-16T05:13:15.024Z,1.70
2019-05-16T05:14:15.012Z,1.80
2019-05-16T05:15:15.037Z,1.40
2019-05-16T05:16:15.004Z,1.50
2019-05-16T05:17:14.979Z,1.80
2019-05-16T05:18:14.977Z,2.10
2019-05-16T05:19:14.957Z,1.80
2019-05-16T05:20:14.980Z,1.70
2019-05-16T05:21:14.933Z,1.60
2019-05-16T05:22:14.928Z,1.70
2019-05-16T05:23:14.921Z,1.80
2019-05-16T05:24:14.909Z,1.80
2019-05-16T05:25:14.933Z,1.90
2019-05-16T05:26:14.910Z,1.90
2019-05-16T05:27:14.870Z,1.70
2019-05-16T05:28:14.936Z,1.80
2019-05-16T05:29:14.843Z,1.70
2019-05-16T05:30:14.857Z,1.70
2019-05-16T05:31:14.846Z,1.70
2019-05-16T05:32:14.826Z,1.70
2019-05-16T05:33:14.808Z,1.70
2019-05-16T05:34:14.793Z,1.90
2019-05-16T05:35:14.815Z,2.00
2019-05-16T05:36:14.794Z,2.00
2019-05-16T05:37:14.758Z,1.80
2019-05-16T05:38:14.753Z,2.20
2019-05-16T05:39:15.579Z,1.70
2019-05-16T05:40:14.743Z,2.00
2019-05-16T05:41:15.075Z,1.60
2019-05-16T05:42:14.719Z,1.70
2019-05-16T05:43:14.697Z,1.70
2019-05-16T05:44:14.682Z,2.50
2019-05-16T05:45:14.676Z,2.10
2019-05-16T05:46:14.687Z,1.70
2019-05-16T05:47:14.669Z,1.80
2019-05-16T05:48:14.647Z,1.60
2019-05-16T05:49:14.629Z,1.70
2019-05-16T05:50:14.713Z,1.50
2019-05-16T05:51:14.638Z,1.60
2019-05-16T05:52:14.585Z,1.70
2019-05-16T05:53:14.574Z,1.50
2019-05-16T05:54:14.565Z,1.60
2019-05-16T05:55:14.571Z,1.70
2019-05-16T05:56:14.722Z,1.50
2019-05-16T05:57:14.554Z,1.70
2019-05-16T05:58:14.520Z,1.40
2019-05-16T05:59:14.515Z,1.60
2019-05-16T06:00:14.511Z,1.60
2019-05-16T06:01:14.533Z,1.60
2019-05-16T06:02:14.482Z,1.70
2019-05-16T06:03:14.485Z,1.50
2019-05-16T06:04:14.466Z,1.50
2019-05-16T06:05:14.453Z,1.70
2019-05-16T06:06:14.453Z,1.70
2019-05-16T06:07:14.446Z,1.60
2019-05-16T06:08:14.410Z,1.70
2019-05-16T06:09:26.161Z,1.70
2019-05-16T06:10:15.404Z,1.60
2019-05-16T06:11:14.393Z,1.80
2019-05-16T06:12:14.372Z,1.80
2019-05-16T06:13:14.399Z,1.70
2019-05-16T06:14:14.358Z,1.80
2019-05-16T06:15:14.357Z,1.70
2019-05-16T06:16:14.366Z,1.80
2019-05-16T06:17:14.324Z,1.50
2019-05-16T06:18:14.315Z,1.30
2019-05-16T06:19:14.287Z,2.00
2019-05-16T06:20:14.935Z,1.60
2019-05-16T06:21:14.319Z,1.70
2019-05-16T06:22:14.259Z,1.70
2019-05-16T06:23:14.252Z,1.80
2019-05-16T06:24:16.175Z,1.80
2019-05-16T06:25:14.223Z,1.80
2019-05-16T06:26:14.221Z,1.80
2019-05-16T06:27:14.234Z,2.00
2019-05-16T06:28:14.200Z,1.80
2019-05-16T06:29:14.191Z,1.60
2019-05-16T06:30:14.192Z,1.60
2019-05-16T06:31:14.575Z,2.50
2019-05-16T06:32:14.163Z,2.10
2019-05-16T06:33:14.139Z,1.80
2019-05-16T06:34:15.254Z,1.80
2019-05-16T06:35:14.120Z,1.70
2019-05-16T06:36:14.103Z,1.90
2019-05-16T06:37:14.111Z,1.80
2019-05-16T06:38:14.092Z,1.60
2019-05-16T06:39:14.069Z,1.70
2019-05-16T06:40:14.059Z,1.80
2019-05-16T06:41:14.049Z,1.80
2019-05-16T06:42:14.076Z,2.00
2019-05-16T06:43:14.030Z,1.60
2019-05-16T06:44:14.033Z,1.80
2019-05-16T06:45:13.998Z,1.50
2019-05-16T06:46:14.018Z,1.60
2019-05-16T06:47:19.701Z,1.60
2019-05-16T06:48:14.976Z,1.80
2019-05-16T06:49:13.960Z,1.60
2019-05-16T06:50:13.973Z,1.50
2019-05-16T06:51:13.934Z,1.40
2019-05-16T06:52:13.946Z,1.60
2019-05-16T06:53:13.914Z,1.70
2019-05-16T06:54:13.951Z,1.50
2019-05-16T06:55:13.888Z,1.70
2019-05-16T06:56:13.903Z,1.50
2019-05-16T06:57:13.968Z,1.40
2019-05-16T06:58:13.893Z,1.50
2019-05-16T06:59:13.844Z,1.50
2019-05-16T07:00:13.843Z,1.50
2019-05-16T07:01:13.835Z,1.40
2019-05-16T07:02:26.758Z,1.50
2019-05-16T07:03:14.829Z,1.50
2019-05-16T07:04:13.796Z,1.70
2019-05-16T07:05:13.798Z,1.60
2019-05-16T07:06:29.704Z,2.10
2019-05-16T07:07:14.761Z,1.80
2019-05-16T07:08:13.779Z,1.40
2019-05-16T07:09:13.760Z,1.70
2019-05-16T07:10:13.735Z,1.60
2019-05-16T07:11:13.713Z,1.50
2019-05-16T07:12:13.709Z,1.50
2019-05-16T07:13:13.712Z,1.50
2019-05-16T07:14:13.697Z,1.50
2019-05-16T07:15:13.699Z,1.50
2019-05-16T07:16:13.664Z,1.40
2019-05-16T07:17:13.660Z,1.50
2019-05-16T07:18:13.660Z,1.60
2019-05-16T07:19:13.638Z,1.40
2019-05-16T07:20:13.616Z,1.30
2019-05-16T07:21:13.630Z,1.20
2019-05-16T07:22:13.645Z,1.30
2019-05-16T07:23:13.613Z,1.50
2019-05-16T07:24:13.571Z,1.40
2019-05-16T07:25:13.569Z,1.60
2019-05-16T07:26:13.557Z,1.40
2019-05-16T07:27:13.556Z,1.50
2019-05-16T07:28:13.566Z,1.20
2019-05-16T07:29:13.523Z,1.60
2019-05-16T07:30:13.517Z,1.70
2019-05-16T07:31:18.347Z,1.70
2019-05-16T07:32:14.488Z,1.70
2019-05-16T07:33:13.495Z,1.40
2019-05-16T07:34:14.671Z,1.60
2019-05-16T07:35:13.467Z,1.10
2019-05-16T07:36:15.905Z,1.40
2019-05-16T07:37:13.463Z,1.40
2019-05-16T07:38:13.422Z,1.20
2019-05-16T07:39:13.447Z,1.30
2019-05-16T07:40:19.678Z,1.40
2019-05-16T07:41:14.401Z,1.20
2019-05-16T07:42:13.378Z,1.30
2019-05-16T07:43:13.374Z,1.50
2019-05-16T07:44:13.385Z,1.30
2019-05-16T07:45:13.353Z,1.50
2019-05-16T07:46:13.332Z,1.50
2019-05-16T07:47:13.331Z,1.20
2019-05-16T07:48:13.310Z,1.10
2019-05-16T07:49:13.342Z,1.10
2019-05-16T07:50:13.310Z,1.00
2019-05-16T07:51:13.286Z,1.20
2019-05-16T07:52:13.291Z,1.10
2019-05-16T07:53:13.282Z,1.10
2019-05-16T07:54:13.280Z,1.10
2019-05-16T07:55:13.258Z,1.20
2019-05-16T07:56:13.233Z,1.20
2019-05-16T07:57:19.520Z,1.30
2019-05-16T07:58:14.214Z,1.40
2019-05-16T07:59:13.186Z,1.30
2019-05-16T08:00:13.206Z,1.20
2019-05-16T08:01:13.171Z,1.30
2019-05-16T08:02:13.167Z,1.20
2019-05-16T08:03:13.153Z,1.10
2019-05-16T08:04:13.192Z,1.10
2019-05-16T08:05:13.117Z,1.00
2019-05-16T08:06:13.127Z,0.90
2019-05-16T08:07:13.107Z,1.10
2019-05-16T08:08:13.095Z,1.20
2019-05-16T08:09:13.197Z,1.00
2019-05-16T08:10:13.088Z,1.20
2019-05-16T08:11:13.069Z,1.10
2019-05-16T08:12:13.039Z,0.90
2019-05-16T08:13:13.321Z,1.00
2019-05-16T08:14:13.034Z,1.10
2019-05-16T08:15:13.037Z,1.10
2019-05-16T08:16:13.008Z,1.00
2019-05-16T08:17:12.988Z,1.00
2019-05-16T08:18:13.003Z,0.90
2019-05-16T08:19:12.990Z,1.00
2019-05-16T08:20:13.002Z,1.20
2019-05-16T08:21:16.742Z,1.00
2019-05-16T08:22:12.949Z,1.00
2019-05-16T08:23:12.975Z,1.00
2019-05-16T08:24:15.102Z,1.20
2019-05-16T08:25:12.911Z,1.00
2019-05-16T08:26:12.894Z,0.90
2019-05-16T08:27:12.898Z,1.00
2019-05-16T08:28:12.867Z,1.00
2019-05-16T08:29:13.547Z,1.10
2019-05-16T08:30:12.857Z,1.20
2019-05-16T08:31:12.833Z,1.10
2019-05-16T08:32:12.869Z,1.00
2019-05-16T08:33:13.688Z,0.90
2019-05-16T08:34:12.810Z,1.00
2019-05-16T08:35:12.810Z,1.30
2019-05-16T08:36:12.825Z,1.10
2019-05-16T08:37:33.094Z,1.20
2019-05-16T08:38:13.766Z,1.00
2019-05-16T08:39:12.736Z,1.20
2019-05-16T08:40:12.726Z,1.00
2019-05-16T08:41:16.897Z,0.90
2019-05-16T08:42:13.325Z,1.20
2019-05-16T08:43:12.706Z,1.20
2019-05-16T08:44:12.858Z,1.40
2019-05-16T08:45:13.126Z,0.90
2019-05-16T08:46:12.735Z,1.00
2019-05-16T08:47:12.661Z,1.00
2019-05-16T08:48:12.639Z,1.00
2019-05-16T08:49:12.857Z,1.20
2019-05-16T08:50:14.703Z,1.10
2019-05-16T08:51:12.622Z,1.20
2019-05-16T08:52:12.600Z,1.00
2019-05-16T08:53:13.809Z,1.50
2019-05-16T08:54:13.658Z,1.60
2019-05-16T08:55:13.670Z,1.20
2019-05-16T08:56:13.324Z,1.40
2019-05-16T08:58:13.759Z,1.10
2019-05-16T08:59:13.476Z,1.40
2019-05-16T09:00:14.638Z,1.20
2019-05-16T09:01:14.807Z,1.20
2019-05-16T09:02:12.786Z,1.10
2019-05-16T09:03:12.576Z,1.30
2019-05-16T09:04:12.468Z,1.30
2019-05-16T09:05:13.842Z,1.30
2019-05-16T09:06:12.487Z,1.60
2019-05-16T09:07:12.784Z,1.20
2019-05-16T09:08:12.437Z,1.50
2019-05-16T09:09:29.511Z,1.40
2019-05-16T09:10:15.889Z,1.50
2019-05-16T09:10:45.716Z,1.30
2019-05-16T09:11:33.954Z,1.30
2019-05-16T09:12:13.417Z,1.30
2019-05-16T09:13:12.362Z,1.30
2019-05-16T09:14:12.355Z,1.30
2019-05-16T09:15:12.340Z,1.30
2019-05-16T09:16:12.397Z,1.30
2019-05-16T09:17:12.343Z,1.40
2019-05-16T09:18:12.311Z,1.40
2019-05-16T09:19:12.297Z,1.20
2019-05-16T09:20:12.302Z,1.30
2019-05-16T09:21:12.307Z,1.50
2019-05-16T09:22:12.269Z,1.20
2019-05-16T09:23:12.257Z,1.20
2019-05-16T09:24:12.262Z,1.30
2019-05-16T09:25:12.234Z,1.20
2019-05-16T09:26:15.985Z,1.30
2019-05-16T09:27:13.516Z,1.40
2019-05-16T09:28:12.197Z,1.20
2019-05-16T09:29:12.185Z,1.30
2019-05-16T09:30:12.190Z,1.20
2019-05-16T09:31:12.193Z,1.40
2019-05-16T09:32:20.410Z,1.20
2019-05-16T09:33:13.142Z,1.40
2019-05-16T09:34:12.130Z,1.70
2019-05-16T09:35:12.122Z,1.40
2019-05-16T09:36:12.115Z,1.40
2019-05-16T09:37:12.118Z,1.40
2019-05-16T09:38:12.089Z,1.40
2019-05-16T09:39:12.105Z,1.30
2019-05-16T09:40:12.067Z,1.50
2019-05-16T09:41:12.071Z,1.40
2019-05-16T09:42:12.057Z,1.30
2019-05-16T09:43:12.045Z,1.30
2019-05-16T09:44:12.032Z,1.40
2019-05-16T09:45:12.011Z,1.20
2019-05-16T09:46:11.997Z,1.40
2019-05-16T09:47:12.012Z,1.30
2019-05-16T09:48:11.989Z,1.30
2019-05-16T09:49:19.328Z,1.40
2019-05-16T09:50:12.949Z,1.10
2019-05-16T09:51:11.943Z,1.40
2019-05-16T09:52:11.968Z,1.50
2019-05-16T09:53:11.937Z,1.20
2019-05-16T09:54:11.923Z,1.50
2019-05-16T09:55:11.900Z,1.30
2019-05-16T09:56:11.890Z,1.50
2019-05-16T09:57:11.887Z,1.50
2019-05-16T09:58:11.884Z,1.50
2019-05-16T09:59:11.860Z,1.50
2019-05-16T10:00:11.870Z,1.20
2019-05-16T10:01:11.832Z,1.30
2019-05-16T10:02:11.860Z,1.30
2019-05-16T10:03:11.812Z,1.30
2019-05-16T10:04:11.800Z,1.20
2019-05-16T10:05:13.543Z,1.30
2019-05-16T10:06:11.779Z,1.30
2019-05-16T10:07:11.762Z,1.50
2019-05-16T10:08:11.768Z,1.50
2019-05-16T10:09:11.747Z,1.40
2019-05-16T10:10:11.730Z,1.30
2019-05-16T10:11:11.738Z,1.50
2019-05-16T10:12:15.514Z,1.30
2019-05-16T10:13:12.718Z,1.60
2019-05-16T10:14:11.687Z,1.90
2019-05-16T10:15:11.692Z,1.40
2019-05-16T10:16:11.662Z,1.40
2019-05-16T10:17:11.655Z,1.60
2019-05-16T10:18:11.680Z,1.80
2019-05-16T10:19:11.649Z,1.50
2019-05-16T10:20:11.622Z,1.50
2019-05-16T10:21:11.607Z,1.50
2019-05-16T10:22:11.630Z,1.60
2019-05-16T10:23:14.812Z,1.40
2019-05-16T10:24:12.610Z,1.70
2019-05-16T10:25:11.562Z,1.50
2019-05-16T10:26:11.559Z,2.20
2019-05-16T10:27:11.549Z,1.70
2019-05-16T10:28:11.583Z,1.80
2019-05-16T10:29:11.538Z,1.80
2019-05-16T10:30:11.511Z,1.70
2019-05-16T10:31:11.503Z,1.60
2019-05-16T10:32:11.499Z,1.60
2019-05-16T10:33:11.479Z,1.70
2019-05-16T10:34:11.524Z,1.70
2019-05-16T10:35:11.453Z,1.60
2019-05-16T10:36:11.450Z,1.90
2019-05-16T10:37:11.431Z,1.80
2019-05-16T10:38:11.455Z,1.70
2019-05-16T10:39:11.433Z,1.80
2019-05-16T10:40:11.401Z,1.50
2019-05-16T10:41:11.399Z,1.60
2019-05-16T10:42:24.861Z,1.80
2019-05-16T10:43:12.398Z,1.70
2019-05-16T10:44:11.373Z,1.70
2019-05-16T10:45:11.361Z,2.00
2019-05-16T10:46:11.332Z,1.90
2019-05-16T10:47:11.329Z,2.00
2019-05-16T10:48:11.322Z,1.90
2019-05-16T10:49:11.338Z,1.80
2019-05-16T10:50:11.293Z,2.10
2019-05-16T10:51:11.280Z,2.00
2019-05-16T10:52:11.278Z,1.80
2019-05-16T10:53:32.371Z,2.20
2019-05-16T10:54:14.258Z,2.00
2019-05-16T10:55:11.270Z,2.30
2019-05-16T10:56:11.260Z,2.00
2019-05-16T10:57:11.295Z,2.00
2019-05-16T10:58:11.222Z,2.10
2019-05-16T10:59:50.241Z,2.00
2019-05-16T11:00:21.443Z,2.00
2019-05-16T11:01:24.461Z,2.60
2019-05-16T11:02:12.202Z,2.10
2019-05-16T11:03:11.144Z,2.30
2019-05-16T11:04:24.226Z,2.10
2019-05-16T11:05:25.143Z,2.30
2019-05-16T11:06:24.826Z,2.30
2019-05-16T11:07:12.179Z,2.20
2019-05-16T11:08:11.171Z,2.30
2019-05-16T11:09:11.136Z,2.20
2019-05-16T11:10:11.069Z,2.50
2019-05-16T11:11:11.059Z,2.10
2019-05-16T11:12:11.061Z,2.10
2019-05-16T11:13:11.064Z,2.00
2019-05-16T11:14:11.047Z,2.10
2019-05-16T11:15:11.632Z,1.90
2019-05-16T11:16:11.010Z,2.40
2019-05-16T11:17:13.322Z,3.00
2019-05-16T11:18:10.977Z,2.50
2019-05-16T11:19:17.387Z,2.40
2019-05-16T11:20:12.028Z,2.20
2019-05-16T11:21:10.955Z,3.50
2019-05-16T11:22:10.943Z,2.00
2019-05-16T11:23:10.919Z,2.00
2019-05-16T11:24:13.222Z,2.20
2019-05-16T11:25:24.222Z,2.10
2019-05-16T11:26:11.890Z,2.30
2019-05-16T11:27:10.881Z,2.40
2019-05-16T11:28:10.875Z,3.00
2019-05-16T11:29:10.879Z,2.40
2019-05-16T11:30:10.897Z,2.20
2019-05-16T11:31:10.870Z,2.40
2019-05-16T11:32:10.833Z,2.70
2019-05-16T11:33:10.823Z,2.70
2019-05-16T11:34:10.812Z,2.50
2019-05-16T11:35:10.854Z,2.80
2019-05-16T11:36:12.971Z,2.50
2019-05-16T11:37:10.781Z,2.50
2019-05-16T11:38:10.762Z,2.50
2019-05-16T11:39:10.753Z,2.70
2019-05-16T11:40:10.758Z,2.60
2019-05-16T11:41:10.762Z,2.60
2019-05-16T11:42:10.725Z,2.40
2019-05-16T11:43:18.017Z,2.40
2019-05-16T11:44:11.708Z,2.70
2019-05-16T11:45:10.985Z,2.30
2019-05-16T11:46:10.688Z,2.30
2019-05-16T11:47:10.673Z,2.60
2019-05-16T11:48:10.668Z,2.60
2019-05-16T11:49:10.635Z,2.50
2019-05-16T11:50:10.635Z,2.10
2019-05-16T11:51:10.643Z,2.10
2019-05-16T11:52:10.616Z,2.30
2019-05-16T11:53:10.600Z,2.50
2019-05-16T11:54:10.607Z,2.20
2019-05-16T11:55:10.602Z,2.40
2019-05-16T11:56:10.581Z,2.60
2019-05-16T11:57:10.548Z,2.40
2019-05-16T11:58:10.570Z,2.30
2019-05-16T11:59:10.548Z,2.60
2019-05-16T12:00:10.535Z,2.30
2019-05-16T12:01:10.523Z,2.70
2019-05-16T12:02:10.522Z,2.40
2019-05-16T12:03:10.485Z,2.60
2019-05-16T12:04:10.483Z,2.30
2019-05-16T12:05:10.491Z,2.30
2019-05-16T12:06:11.325Z,2.10
2019-05-16T12:07:10.445Z,2.90
2019-05-16T12:08:10.429Z,2.10
2019-05-16T12:09:10.429Z,2.30
2019-05-16T12:10:10.407Z,2.60
2019-05-16T12:11:10.402Z,2.40
2019-05-16T12:12:10.427Z,2.10
2019-05-16T12:13:24.315Z,2.50
2019-05-16T12:14:11.357Z,2.40
2019-05-16T12:15:10.363Z,2.40
2019-05-16T12:16:10.353Z,2.30
2019-05-16T12:17:10.376Z,2.30
2019-05-16T12:18:10.338Z,2.20
2019-05-16T12:19:10.303Z,2.40
2019-05-16T12:20:10.301Z,2.30
2019-05-16T12:21:10.289Z,2.00
2019-05-16T12:22:10.295Z,2.10
2019-05-16T12:23:10.273Z,2.60
2019-05-16T12:24:10.272Z,2.40
2019-05-16T12:25:10.238Z,2.40
2019-05-16T12:26:10.248Z,2.20
2019-05-16T12:27:10.309Z,2.40
2019-05-16T12:28:10.204Z,2.30
2019-05-16T12:29:10.197Z,2.40
2019-05-16T12:30:13.617Z,2.50
2019-05-16T12:31:10.192Z,2.20
2019-05-16T12:32:10.199Z,2.40
2019-05-16T12:33:10.161Z,2.10
2019-05-16T12:34:10.275Z,2.60
2019-05-16T12:35:10.140Z,2.20
2019-05-16T12:36:10.150Z,2.30
2019-05-16T12:37:10.137Z,2.10
2019-05-16T12:38:10.115Z,2.10
2019-05-16T12:39:10.098Z,2.10
2019-05-16T12:40:10.083Z,2.30
2019-05-16T12:41:10.078Z,2.60
2019-05-16T12:42:10.232Z,2.10
2019-05-16T12:43:10.041Z,2.20
2019-05-16T12:44:10.041Z,2.50
2019-05-16T12:45:10.049Z,2.00
2019-05-16T12:46:10.009Z,2.50
2019-05-16T12:47:10.044Z,2.30
2019-05-16T12:48:10.045Z,2.30
2019-05-16T12:49:09.985Z,2.50
2019-05-16T12:50:09.985Z,2.30
2019-05-16T12:51:09.957Z,2.20
2019-05-16T12:52:09.974Z,2.30
2019-05-16T12:53:09.938Z,2.10
2019-05-16T12:54:09.917Z,2.20
2019-05-16T12:55:09.917Z,2.00
2019-05-16T12:56:09.896Z,2.10
2019-05-16T12:57:09.906Z,2.00
2019-05-16T12:58:13.598Z,2.00
2019-05-16T12:59:09.864Z,2.30
2019-05-16T13:00:15.317Z,2.30
2019-05-16T13:01:10.850Z,2.10
2019-05-16T13:02:09.834Z,2.30
2019-05-16T13:03:09.846Z,2.10
2019-05-16T13:04:12.566Z,2.40
2019-05-16T13:05:09.798Z,2.20
2019-05-16T13:06:09.785Z,1.80
2019-05-16T13:07:09.911Z,1.80
2019-05-16T13:08:09.844Z,2.30
2019-05-16T13:09:09.759Z,2.00
2019-05-16T13:10:09.768Z,2.40
2019-05-16T13:11:09.736Z,2.20
2019-05-16T13:12:09.728Z,2.50
2019-05-16T13:13:09.737Z,2.30
2019-05-16T13:14:11.276Z,2.00
2019-05-16T13:15:09.713Z,1.90
2019-05-16T13:16:09.681Z,2.20
2019-05-16T13:17:09.672Z,2.30
2019-05-16T13:18:09.683Z,2.40